createdAt,value
2022-10-07T00:01:07.076Z,70.10
2022-10-07T00:03:35.643Z,69.30
2022-10-07T00:06:05.853Z,69.40
2022-10-07T00:08:34.450Z,69.40
2022-10-07T00:11:06.591Z,69.40
2022-10-07T00:13:36.514Z,69.40
2022-10-07T00:16:07.684Z,69.40
2022-10-07T00:18:36.308Z,69.40
2022-10-07T00:21:06.164Z,69.40
2022-10-07T00:23:34.368Z,69.40
2022-10-07T00:26:03.308Z,69.40
2022-10-07T00:28:32.014Z,69.40
2022-10-07T00:31:01.199Z,69.40
2022-10-07T00:33:33.849Z,69.40
2022-10-07T00:36:01.699Z,69.50
2022-10-07T00:38:29.502Z,69.50
2022-10-07T00:40:57.250Z,69.50
2022-10-07T00:43:27.320Z,69.50
2022-10-07T00:45:58.924Z,69.50
2022-10-07T00:48:30.947Z,69.50
2022-10-07T00:51:02.604Z,69.50
2022-10-07T00:53:34.220Z,69.50
2022-10-07T00:56:03.460Z,69.50
2022-10-07T00:58:33.783Z,69.50
2022-10-07T01:01:01.722Z,69.60
2022-10-07T01:03:30.116Z,69.60
2022-10-07T01:05:57.913Z,69.50
2022-10-07T01:08:27.148Z,69.60
2022-10-07T01:11:13.657Z,69.50
2022-10-07T01:13:46.461Z,69.60
2022-10-07T01:16:23.094Z,69.60
2022-10-07T01:18:58.566Z,69.50
2022-10-07T01:21:39.007Z,69.50
2022-10-07T01:24:18.518Z,69.60
2022-10-07T01:26:56.461Z,70.50
2022-10-07T01:29:29.826Z,69.60
2022-10-07T01:32:04.836Z,69.70
2022-10-07T01:34:34.367Z,69.60
2022-10-07T01:37:04.360Z,69.70
2022-10-07T01:39:37.456Z,69.60
2022-10-07T01:42:07.426Z,69.70
2022-10-07T01:44:36.030Z,69.70
2022-10-07T01:47:04.223Z,69.70
2022-10-07T01:49:32.045Z,69.70
2022-10-07T01:52:31.137Z,69.70
2022-10-07T01:55:29.538Z,69.70
2022-10-07T01:58:11.377Z,69.70
2022-10-07T02:00:44.790Z,69.70
2022-10-07T02:03:33.812Z,69.70
2022-10-07T02:06:11.362Z,69.70
2022-10-07T02:08:44.094Z,69.70
2022-10-07T02:11:15.465Z,69.70
2022-10-07T02:13:57.797Z,69.70
2022-10-07T02:16:32.560Z,69.70
2022-10-07T02:19:03.960Z,69.70
2022-10-07T02:21:36.891Z,69.70
2022-10-07T02:24:06.348Z,69.70
2022-10-07T02:26:36.425Z,69.80
2022-10-07T02:29:09.754Z,69.80
2022-10-07T02:31:41.899Z,69.80
2022-10-07T02:34:18.919Z,69.80
2022-10-07T02:36:51.797Z,69.80
2022-10-07T02:39:19.821Z,69.80
2022-10-07T02:41:52.606Z,69.80
2022-10-07T02:44:32.028Z,69.80
2022-10-07T02:47:06.557Z,69.80
2022-10-07T02:49:38.392Z,69.80
2022-10-07T02:52:08.958Z,69.90
2022-10-07T02:54:40.042Z,69.90
2022-10-07T02:57:09.957Z,69.90
2022-10-07T02:59:41.239Z,69.90
2022-10-07T03:02:13.812Z,69.90
2022-10-07T03:04:42.274Z,69.90
2022-10-07T03:07:13.720Z,69.90
2022-10-07T03:09:42.670Z,69.90
2022-10-07T03:12:12.568Z,69.90
2022-10-07T03:14:42.010Z,69.90
2022-10-07T03:17:10.139Z,69.90
2022-10-07T03:19:37.992Z,69.90
2022-10-07T03:22:06.083Z,70.00
2022-10-07T03:24:37.606Z,70.00
2022-10-07T03:27:07.101Z,69.80
2022-10-07T03:29:35.384Z,70.00
2022-10-07T03:32:05.773Z,70.00
2022-10-07T03:34:34.651Z,70.00
2022-10-07T03:37:03.470Z,70.00
2022-10-07T03:39:31.336Z,70.00
2022-10-07T03:41:59.405Z,70.00
2022-10-07T03:44:27.203Z,70.00
2022-10-07T03:46:56.884Z,70.00
2022-10-07T03:49:28.058Z,70.00
2022-10-07T03:51:56.595Z,70.00
2022-10-07T03:54:24.907Z,70.00
2022-10-07T03:56:52.714Z,70.00
2022-10-07T03:59:20.521Z,70.10
2022-10-07T04:01:50.291Z,69.90
2022-10-07T04:04:19.882Z,70.10
2022-10-07T04:06:49.944Z,70.00
2022-10-07T04:09:17.857Z,69.90
2022-10-07T04:11:45.627Z,70.00
2022-10-07T04:14:13.396Z,70.00
2022-10-07T04:16:42.194Z,69.90
2022-10-07T04:19:12.409Z,69.80
2022-10-07T04:21:40.194Z,69.80
2022-10-07T04:24:09.590Z,69.80
2022-10-07T04:26:38.469Z,69.80
2022-10-07T04:29:06.610Z,69.70
2022-10-07T04:31:34.681Z,69.70
2022-10-07T04:34:05.587Z,69.70
2022-10-07T04:36:37.788Z,69.60
2022-10-07T04:39:10.297Z,69.60
2022-10-07T04:41:42.941Z,69.50
2022-10-07T04:44:16.781Z,69.50
2022-10-07T04:46:56.751Z,69.50
2022-10-07T04:49:26.819Z,69.50
2022-10-07T04:51:56.674Z,69.40
2022-10-07T04:54:28.484Z,69.40
2022-10-07T04:56:57.217Z,69.40
2022-10-07T04:59:29.968Z,69.40
2022-10-07T05:01:58.567Z,69.40
2022-10-07T05:04:27.699Z,69.30
2022-10-07T05:06:56.817Z,69.30
2022-10-07T05:09:25.926Z,69.20
2022-10-07T05:11:56.134Z,69.10
2022-10-07T05:14:24.523Z,69.20
2022-10-07T05:16:53.858Z,69.20
2022-10-07T05:19:24.256Z,69.00
2022-10-07T05:21:52.018Z,69.00
2022-10-07T05:24:20.163Z,69.00
2022-10-07T05:26:48.931Z,69.00
2022-10-07T05:29:19.476Z,69.80
2022-10-07T05:31:50.787Z,68.90
2022-10-07T05:34:21.791Z,69.00
2022-10-07T05:36:49.853Z,68.90
2022-10-07T05:39:17.762Z,68.90
2022-10-07T05:41:52.046Z,68.90
2022-10-07T05:44:26.422Z,69.60
2022-10-07T05:46:57.093Z,68.80
2022-10-07T05:49:25.211Z,68.80
2022-10-07T05:51:52.978Z,68.80
2022-10-07T05:54:21.171Z,68.80
2022-10-07T05:56:49.323Z,68.70
2022-10-07T05:59:20.393Z,68.70
2022-10-07T06:01:50.363Z,68.70
2022-10-07T06:04:21.903Z,68.70
2022-10-07T06:06:52.447Z,68.70
2022-10-07T06:09:38.434Z,68.60
2022-10-07T06:12:32.033Z,68.60
2022-10-07T06:15:02.669Z,68.60
2022-10-07T06:17:32.213Z,68.60
2022-10-07T06:20:02.166Z,68.60
2022-10-07T06:22:30.321Z,68.60
2022-10-07T06:25:00.922Z,68.60
2022-10-07T06:27:28.710Z,68.40
2022-10-07T06:29:56.569Z,68.50
2022-10-07T06:32:24.348Z,68.50
2022-10-07T06:34:53.553Z,68.50
2022-10-07T06:37:22.597Z,68.40
2022-10-07T06:39:50.415Z,68.50
2022-10-07T06:42:18.289Z,68.40
2022-10-07T06:44:59.022Z,68.40
2022-10-07T06:47:26.949Z,68.40
2022-10-07T06:49:56.280Z,68.40
2022-10-07T06:52:24.099Z,68.40
2022-10-07T06:54:52.982Z,68.40
2022-10-07T06:57:44.355Z,68.30
2022-10-07T07:00:10.754Z,68.30
2022-10-07T07:02:38.885Z,68.30
2022-10-07T07:05:09.576Z,68.40
2022-10-07T07:07:38.443Z,68.30
2022-10-07T07:10:07.443Z,68.30
2022-10-07T07:12:38.106Z,68.40
2022-10-07T07:15:07.302Z,68.30
2022-10-07T07:17:35.132Z,68.30
2022-10-07T07:20:03.018Z,68.40
2022-10-07T07:22:32.890Z,68.30
2022-10-07T07:25:00.735Z,68.40
2022-10-07T07:27:28.627Z,68.40
2022-10-07T07:29:57.583Z,68.30
2022-10-07T07:32:26.225Z,68.40
2022-10-07T07:34:55.627Z,68.30
2022-10-07T07:37:24.661Z,68.40
2022-10-07T07:39:57.257Z,68.40
2022-10-07T07:42:25.057Z,68.40
2022-10-07T07:44:52.782Z,68.40
2022-10-07T07:47:21.673Z,68.40
2022-10-07T07:49:50.598Z,68.40
2022-10-07T07:52:25.475Z,68.40
2022-10-07T07:54:58.147Z,68.40
2022-10-07T07:57:27.512Z,68.40
2022-10-07T07:59:56.608Z,68.40
2022-10-07T08:02:25.287Z,68.50
2022-10-07T08:04:54.607Z,68.50
2022-10-07T08:07:23.829Z,68.50
2022-10-07T08:09:51.880Z,68.50
2022-10-07T08:12:22.186Z,68.50
2022-10-07T08:14:52.083Z,68.50
2022-10-07T08:17:19.857Z,68.50
2022-10-07T08:19:47.908Z,68.60
2022-10-07T08:22:17.550Z,68.60
2022-10-07T08:24:47.164Z,68.60
2022-10-07T08:27:16.515Z,69.40
2022-10-07T08:29:45.582Z,68.60
2022-10-07T08:32:13.338Z,68.60
2022-10-07T08:34:41.080Z,68.60
2022-10-07T08:37:08.834Z,68.60
2022-10-07T08:39:36.551Z,68.60
2022-10-07T08:42:13.170Z,68.60
2022-10-07T08:44:43.696Z,68.60
2022-10-07T08:47:20.242Z,68.60
2022-10-07T08:50:04.272Z,68.70
2022-10-07T08:52:40.383Z,68.60
2022-10-07T08:55:18.472Z,68.60
2022-10-07T08:58:04.129Z,68.70
2022-10-07T09:00:39.714Z,68.70
2022-10-07T09:03:24.984Z,69.50
2022-10-07T09:05:55.555Z,68.70
2022-10-07T09:08:29.054Z,68.70
2022-10-07T09:11:15.358Z,68.80
2022-10-07T09:13:48.871Z,69.60
2022-10-07T09:16:22.566Z,68.90
2022-10-07T09:18:54.268Z,68.80
2022-10-07T09:24:19.658Z,68.90
2022-10-07T09:26:47.511Z,69.00
2022-10-07T09:29:16.315Z,69.00
2022-10-07T09:31:44.058Z,69.00
2022-10-07T09:34:21.305Z,69.00
2022-10-07T09:37:20.543Z,69.00
2022-10-07T09:39:49.871Z,69.00
2022-10-07T09:42:26.352Z,69.00
2022-10-07T09:44:56.460Z,69.10
2022-10-07T09:47:26.479Z,69.00
2022-10-07T09:49:59.440Z,69.10
2022-10-07T09:52:28.522Z,69.10
2022-10-07T09:54:58.207Z,69.10
2022-10-07T09:57:32.545Z,69.10
2022-10-07T10:00:21.772Z,69.10
2022-10-07T10:02:51.926Z,69.10
2022-10-07T10:05:28.001Z,69.10
2022-10-07T10:07:59.621Z,69.10
2022-10-07T10:10:29.703Z,69.10
2022-10-07T10:12:59.708Z,69.20
2022-10-07T10:15:38.259Z,69.20
2022-10-07T10:18:30.909Z,69.10
2022-10-07T10:21:28.568Z,69.20
2022-10-07T10:23:59.412Z,69.10
2022-10-07T10:26:43.312Z,69.10
2022-10-07T10:29:20.013Z,69.10
2022-10-07T10:32:21.794Z,69.10
2022-10-07T10:34:56.954Z,69.10
2022-10-07T10:37:39.495Z,69.10
2022-10-07T10:40:15.919Z,69.10
2022-10-07T10:42:50.550Z,69.10
2022-10-07T10:45:34.921Z,69.10
2022-10-07T10:48:21.041Z,69.10
2022-10-07T10:50:56.480Z,69.10
2022-10-07T10:53:37.847Z,69.10
2022-10-07T10:56:28.782Z,69.10
2022-10-07T10:59:12.205Z,69.10
2022-10-07T11:01:41.665Z,69.00
2022-10-07T11:04:28.117Z,69.00
2022-10-07T11:07:00.120Z,69.00
2022-10-07T11:09:38.486Z,69.00
2022-10-07T11:12:18.574Z,68.90
2022-10-07T11:14:56.917Z,69.80
2022-10-07T11:17:30.253Z,68.90
2022-10-07T11:20:05.743Z,69.00
2022-10-07T11:22:46.021Z,69.00
2022-10-07T11:25:25.391Z,68.90
2022-10-07T11:28:00.289Z,68.90
2022-10-07T11:30:31.798Z,68.90
2022-10-07T11:33:04.749Z,68.90
2022-10-07T11:35:34.909Z,68.90
2022-10-07T11:38:14.395Z,68.80
2022-10-07T11:40:47.181Z,68.80
2022-10-07T11:43:19.656Z,68.80
2022-10-07T11:45:52.173Z,68.80
2022-10-07T11:48:23.971Z,68.80
2022-10-07T11:50:56.558Z,68.80
2022-10-07T11:53:26.894Z,68.70
2022-10-07T11:56:00.672Z,68.70
2022-10-07T11:58:32.273Z,68.80
2022-10-07T12:01:31.923Z,68.80
2022-10-07T12:04:38.118Z,68.70
2022-10-07T12:07:50.850Z,68.80
2022-10-07T12:10:36.627Z,68.70
2022-10-07T12:13:40.951Z,68.80
2022-10-07T12:16:53.014Z,68.60
2022-10-07T12:19:23.842Z,68.60
2022-10-07T12:22:18.640Z,68.60
2022-10-07T12:25:11.179Z,68.60
2022-10-07T12:27:47.168Z,68.70
2022-10-07T12:30:38.242Z,68.70
2022-10-07T12:33:16.480Z,68.70
2022-10-07T12:35:53.691Z,68.70
2022-10-07T12:38:28.599Z,68.70
2022-10-07T12:41:24.606Z,68.70
2022-10-07T12:43:59.796Z,68.70
2022-10-07T12:46:34.300Z,68.70
2022-10-07T12:49:07.175Z,68.70
2022-10-07T12:51:38.692Z,68.70
2022-10-07T12:54:10.906Z,68.70
2022-10-07T12:56:38.815Z,68.70
2022-10-07T12:59:48.604Z,68.70
2022-10-07T13:03:02.860Z,68.70
2022-10-07T13:05:59.323Z,68.70
2022-10-07T13:09:02.947Z,68.80
2022-10-07T13:11:56.250Z,68.80
2022-10-07T13:14:29.229Z,68.80
2022-10-07T13:17:03.366Z,68.70
2022-10-07T13:19:37.396Z,68.80
2022-10-07T13:22:12.993Z,68.80
2022-10-07T13:24:42.851Z,68.80
2022-10-07T13:27:12.421Z,68.80
2022-10-07T13:29:42.310Z,68.80
2022-10-07T13:32:16.062Z,68.80
2022-10-07T13:34:46.142Z,69.60
2022-10-07T13:37:30.743Z,68.80
2022-10-07T13:40:18.934Z,68.80
2022-10-07T13:42:53.171Z,68.80
2022-10-07T13:45:22.516Z,68.80
2022-10-07T13:47:51.001Z,68.80
2022-10-07T13:50:21.617Z,68.80
2022-10-07T13:52:53.059Z,68.80
2022-10-07T13:55:28.133Z,68.90
2022-10-07T13:57:57.327Z,68.90
2022-10-07T14:00:27.357Z,69.00
2022-10-07T14:02:55.451Z,68.90
2022-10-07T14:05:27.735Z,68.90
2022-10-07T14:07:58.061Z,68.90
2022-10-07T14:10:28.762Z,68.90
2022-10-07T14:12:58.918Z,69.00
2022-10-07T14:15:30.050Z,68.90
2022-10-07T14:18:00.312Z,69.00
2022-10-07T14:20:30.633Z,68.90
2022-10-07T14:23:00.714Z,68.90
2022-10-07T14:25:30.051Z,68.90
2022-10-07T14:28:19.632Z,68.90
2022-10-07T14:31:30.274Z,68.90
2022-10-07T14:34:18.722Z,68.90
2022-10-07T14:37:02.363Z,68.90
2022-10-07T14:39:34.303Z,68.90
2022-10-07T14:42:02.610Z,68.90
2022-10-07T14:44:31.478Z,68.90
2022-10-07T14:47:13.868Z,68.90
2022-10-07T14:49:42.157Z,68.90
2022-10-07T14:52:13.739Z,68.90
2022-10-07T14:54:41.806Z,68.90
2022-10-07T14:57:09.874Z,68.90
2022-10-07T14:59:37.782Z,68.90
2022-10-07T15:02:06.645Z,68.90
2022-10-07T15:04:35.867Z,69.10
2022-10-07T15:07:03.761Z,68.90
2022-10-07T15:09:31.502Z,69.10
2022-10-07T15:11:59.242Z,69.10
2022-10-07T15:14:27.011Z,69.10
2022-10-07T15:16:54.921Z,69.10
2022-10-07T15:19:22.788Z,69.00
2022-10-07T15:22:06.541Z,68.90
2022-10-07T15:24:35.833Z,69.10
2022-10-07T15:27:06.296Z,68.90
2022-10-07T15:29:34.045Z,68.90
2022-10-07T15:32:01.773Z,68.90
2022-10-07T15:34:30.866Z,68.90
2022-10-07T15:36:59.056Z,68.90
2022-10-07T15:39:27.114Z,69.00
2022-10-07T15:41:56.184Z,68.90
2022-10-07T15:44:23.898Z,69.00
2022-10-07T15:46:55.064Z,69.00
2022-10-07T15:49:23.017Z,69.00
2022-10-07T15:51:50.864Z,69.00
2022-10-07T15:54:18.612Z,69.00
2022-10-07T15:56:47.327Z,69.10
2022-10-07T15:59:16.909Z,69.10
2022-10-07T16:01:44.674Z,69.10
2022-10-07T16:04:15.121Z,69.20
2022-10-07T16:06:49.433Z,69.20
2022-10-07T16:09:17.140Z,69.20
2022-10-07T16:11:45.638Z,69.10
2022-10-07T16:14:13.639Z,69.10
2022-10-07T16:16:43.555Z,69.10
2022-10-07T16:19:12.369Z,69.20
2022-10-07T16:21:41.852Z,69.10
2022-10-07T16:24:14.408Z,69.20
2022-10-07T16:26:42.743Z,69.20
2022-10-07T16:29:32.498Z,69.10
2022-10-07T16:32:02.272Z,69.20
2022-10-07T16:34:30.105Z,69.10
2022-10-07T16:36:58.755Z,69.10
2022-10-07T16:39:26.736Z,69.20
2022-10-07T16:41:56.302Z,69.20
2022-10-07T16:44:24.722Z,69.20
2022-10-07T16:46:56.404Z,69.30
2022-10-07T16:49:27.583Z,69.20
2022-10-07T16:51:56.281Z,69.20
2022-10-07T16:54:24.093Z,69.30
2022-10-07T16:56:53.085Z,69.20
2022-10-07T16:59:23.877Z,69.20
2022-10-07T17:01:54.477Z,69.20
2022-10-07T17:04:22.309Z,69.20
2022-10-07T17:06:51.596Z,69.20
2022-10-07T17:09:19.428Z,69.20
2022-10-07T17:11:47.551Z,69.20
2022-10-07T17:14:17.516Z,69.20
2022-10-07T17:16:46.775Z,69.20
2022-10-07T17:19:17.298Z,69.20
2022-10-07T17:21:47.565Z,69.20
2022-10-07T17:24:17.211Z,69.20
2022-10-07T17:26:45.957Z,69.20
2022-10-07T17:29:16.448Z,69.20
2022-10-07T17:31:46.926Z,69.20
2022-10-07T17:34:15.897Z,69.10
2022-10-07T17:36:44.570Z,69.10
2022-10-07T17:39:12.857Z,69.10
2022-10-07T17:41:42.050Z,69.10
2022-10-07T17:44:11.986Z,69.10
2022-10-07T17:46:41.220Z,69.10
2022-10-07T17:49:11.446Z,69.10
2022-10-07T17:51:40.052Z,69.10
2022-10-07T17:54:07.842Z,70.10
2022-10-07T17:56:35.586Z,69.20
2022-10-07T17:59:05.276Z,69.20
2022-10-07T18:01:34.734Z,69.20
2022-10-07T18:04:04.229Z,69.20
2022-10-07T18:06:34.009Z,69.20
2022-10-07T18:09:03.286Z,69.10
2022-10-07T18:11:45.560Z,69.10
2022-10-07T18:14:34.367Z,69.10
2022-10-07T18:17:02.567Z,69.10
2022-10-07T18:19:30.327Z,69.10
2022-10-07T18:21:58.217Z,69.10
2022-10-07T18:24:27.848Z,69.10
2022-10-07T18:26:58.270Z,69.10
2022-10-07T18:29:27.372Z,69.10
2022-10-07T18:31:56.031Z,69.10
2022-10-07T18:34:23.999Z,69.10
2022-10-07T18:36:56.188Z,69.10
2022-10-07T18:39:24.672Z,69.10
2022-10-07T18:41:52.626Z,69.10
2022-10-07T18:44:20.378Z,69.10
2022-10-07T18:46:49.448Z,69.10
2022-10-07T18:49:17.513Z,69.10
2022-10-07T18:51:46.971Z,69.20
2022-10-07T18:54:14.850Z,69.20
2022-10-07T18:56:42.581Z,69.20
2022-10-07T18:59:12.969Z,69.20
2022-10-07T19:01:41.703Z,69.20
2022-10-07T19:04:12.673Z,69.10
2022-10-07T19:06:43.762Z,69.20
2022-10-07T19:09:14.468Z,69.10
2022-10-07T19:11:42.263Z,69.10
2022-10-07T19:14:09.524Z,69.10
2022-10-07T19:16:39.494Z,69.10
2022-10-07T19:19:09.412Z,69.10
2022-10-07T19:21:39.360Z,69.10
2022-10-07T19:24:07.861Z,69.10
2022-10-07T19:26:38.396Z,69.10
2022-10-07T19:29:08.944Z,69.10
2022-10-07T19:31:40.079Z,69.10
2022-10-07T19:34:09.789Z,69.10
2022-10-07T19:36:42.037Z,69.10
2022-10-07T19:39:10.640Z,69.10
2022-10-07T19:41:38.777Z,69.10
2022-10-07T19:44:06.863Z,69.10
2022-10-07T19:46:34.933Z,69.10
2022-10-07T19:49:03.601Z,69.10
2022-10-07T19:51:33.340Z,69.10
2022-10-07T19:54:05.577Z,69.10
2022-10-07T19:56:35.461Z,69.10
2022-10-07T19:59:06.281Z,69.10
2022-10-07T20:01:36.011Z,69.10
2022-10-07T20:04:06.744Z,69.10
2022-10-07T20:06:36.396Z,70.00
2022-10-07T20:09:06.645Z,69.10
2022-10-07T20:11:34.909Z,69.20
2022-10-07T20:14:02.913Z,69.20
2022-10-07T20:16:30.989Z,69.20
2022-10-07T20:19:01.176Z,69.20
2022-10-07T20:21:30.303Z,69.20
2022-10-07T20:23:58.382Z,69.20
2022-10-07T20:26:29.173Z,69.20
2022-10-07T20:28:58.678Z,69.20
2022-10-07T20:31:29.340Z,69.20
2022-10-07T20:33:59.708Z,69.30
2022-10-07T20:36:29.091Z,69.20
2022-10-07T20:39:16.025Z,69.30
2022-10-07T20:42:07.176Z,69.30
2022-10-07T20:44:36.493Z,69.20
2022-10-07T20:47:04.528Z,69.20
2022-10-07T20:49:33.439Z,69.20
2022-10-07T20:52:03.576Z,69.20
2022-10-07T20:54:33.026Z,69.20
2022-10-07T20:57:02.190Z,69.20
2022-10-07T20:59:31.909Z,69.20
2022-10-07T21:02:00.457Z,69.20
2022-10-07T21:04:29.116Z,69.30
2022-10-07T21:06:57.459Z,69.20
2022-10-07T21:09:25.859Z,69.20
2022-10-07T21:11:54.216Z,69.30
2022-10-07T21:14:23.689Z,69.20
2022-10-07T21:16:52.070Z,69.30
2022-10-07T21:19:20.017Z,69.30
2022-10-07T21:21:47.732Z,69.40
2022-10-07T21:24:15.536Z,69.30
2022-10-07T21:26:43.734Z,69.30
2022-10-07T21:29:11.758Z,69.30
2022-10-07T21:31:41.432Z,69.30
2022-10-07T21:34:10.267Z,69.30
2022-10-07T21:36:40.354Z,69.30
2022-10-07T21:39:08.266Z,69.30
2022-10-07T21:41:38.541Z,69.40
2022-10-07T21:44:08.933Z,69.40
2022-10-07T21:46:37.059Z,69.40
2022-10-07T21:49:07.642Z,69.40
2022-10-07T21:51:35.890Z,69.30
2022-10-07T21:54:04.378Z,69.40
2022-10-07T21:56:34.399Z,69.40
2022-10-07T21:59:05.397Z,69.40
2022-10-07T22:01:33.336Z,69.40
2022-10-07T22:04:03.240Z,69.40
2022-10-07T22:06:50.647Z,69.40
2022-10-07T22:09:21.089Z,69.40
2022-10-07T22:11:49.110Z,69.40
2022-10-07T22:14:18.631Z,69.50
2022-10-07T22:16:47.863Z,69.40
2022-10-07T22:19:16.512Z,69.40
2022-10-07T22:21:46.140Z,69.40
2022-10-07T22:24:14.850Z,69.50
2022-10-07T22:26:45.836Z,69.50
2022-10-07T22:29:15.432Z,69.50
2022-10-07T22:31:43.303Z,69.50
2022-10-07T22:34:31.433Z,69.50
2022-10-07T22:36:59.629Z,69.50
2022-10-07T22:39:28.896Z,69.50
2022-10-07T22:41:57.467Z,69.50
2022-10-07T22:44:28.514Z,69.50
2022-10-07T22:46:56.618Z,69.50
2022-10-07T22:49:28.808Z,69.50
2022-10-07T22:51:58.130Z,69.50
2022-10-07T22:54:27.748Z,69.50
2022-10-07T22:56:55.548Z,69.50
2022-10-07T22:59:23.767Z,69.50
2022-10-07T23:01:51.559Z,69.50
2022-10-07T23:04:20.104Z,70.30
2022-10-07T23:06:48.242Z,69.60
2022-10-07T23:09:16.003Z,69.60
2022-10-07T23:11:45.644Z,69.60
2022-10-07T23:14:13.454Z,69.60
2022-10-07T23:16:41.781Z,69.60
2022-10-07T23:19:10.118Z,69.60
2022-10-07T23:21:37.936Z,69.60
2022-10-07T23:24:08.086Z,69.60
2022-10-07T23:26:37.185Z,69.60
2022-10-07T23:29:07.456Z,69.60
2022-10-07T23:31:35.456Z,69.60
2022-10-07T23:34:03.971Z,69.70
2022-10-07T23:36:33.208Z,69.60
2022-10-07T23:39:01.553Z,69.70
2022-10-07T23:41:31.020Z,69.70
2022-10-07T23:44:01.714Z,69.70
2022-10-07T23:46:32.775Z,69.70
2022-10-07T23:49:00.902Z,70.50
2022-10-07T23:51:29.508Z,69.70
2022-10-07T23:53:57.470Z,69.70
2022-10-07T23:56:25.361Z,69.50
2022-10-07T23:58:53.153Z,69.70
